Elton, Wisconsin
Current Conditions -  °F | °C
As of 8:35 PM on Wednesday 17 Dec 2014 (Local Time) from KAIG Reporting Station
Overcast Overcast  
Wind Chill:   Ceiling: 1000
Heat Index: 22°   Visibility: 10mi
Dew Point: 19°   Wind: 14mph
Humidity: 91%   Direction: 350°N
Pressure: 30.18"   Gusts: 17mph
Location:  45.17°N, 88.89°W
Report Text: KAIG 180235Z AUTO 35012G15KT 10SM OVC010 M06/M07 A3018 RMK AO2 T10581070
Loading
Personal Weather Stations






























Interactive Weather Map New forecast layout! Learn more

10-Day Weather Forecast

Advertisements
Track Severe Weather on mobile